Time;durP1;ratioP1;P1;durP2;ratioP2;P2;SDS_P1;SDS_P2;PMS_P1;PMS_P2;Temp;Humidity;BMP_temperature;BMP_pressure;BME280_temperature;BME280_humidity;BME280_pressure;Samples;Min_cycle;Max_cycle;Signal;HPM_P1;HPM_P2
2021/12/30 00:00:55;;;;;;;37.92;16.67;;;;;;;10.06;100.00;100969.75;4994145;28;20031;-56
2021/12/30 00:03:21;;;;;;;40.35;16.48;;;;;;;10.13;100.00;100986.75;4994262;28;20050;-56
2021/12/30 00:05:47;;;;;;;40.33;17.05;;;;;;;10.07;100.00;100982.44;4994155;28;20437;-56
2021/12/30 00:08:12;;;;;;;39.15;15.82;;;;;;;10.09;100.00;100982.13;4993902;28;20026;-56
2021/12/30 00:10:40;;;;;;;41.60;15.02;;;;;;;10.10;100.00;100989.31;4994105;28;20450;-56
2021/12/30 00:13:06;;;;;;;32.90;13.68;;;;;;;10.12;100.00;100993.41;4994059;28;20034;-56
2021/12/30 00:15:31;;;;;;;36.00;13.57;;;;;;;10.14;100.00;100995.91;4994239;28;20030;-56
2021/12/30 00:17:57;;;;;;;36.78;13.52;;;;;;;10.08;100.00;100981.31;4993911;28;20026;-58
2021/12/30 00:20:22;;;;;;;35.67;12.20;;;;;;;10.13;100.00;101000.59;4994268;28;20085;-58
2021/12/30 00:22:48;;;;;;;35.30;11.65;;;;;;;10.12;100.00;101004.47;4994097;28;20493;-58
2021/12/30 00:25:15;;;;;;;37.15;12.52;;;;;;;10.13;100.00;101003.34;4993895;28;20019;-57
2021/12/30 00:27:40;;;;;;;33.38;12.38;;;;;;;10.11;100.00;101004.78;4993869;28;20097;-56
2021/12/30 00:30:09;;;;;;;35.53;12.15;;;;;;;10.06;100.00;101002.91;4994163;28;20054;-56
2021/12/30 00:32:34;;;;;;;35.38;11.73;;;;;;;10.09;100.00;101007.84;4993951;28;20038;-57
2021/12/30 00:34:59;;;;;;;30.95;11.75;;;;;;;10.14;100.00;101013.28;4993200;28;20034;-56
2021/12/30 00:37:25;;;;;;;38.80;12.95;;;;;;;10.17;100.00;101014.63;4993625;28;20110;-57
2021/12/30 00:39:50;;;;;;;34.97;11.70;;;;;;;10.24;100.00;101019.78;4993836;28;20116;-56
2021/12/30 00:42:15;;;;;;;35.95;12.52;;;;;;;10.26;100.00;101012.81;4993731;28;20462;-56
2021/12/30 00:44:41;;;;;;;34.88;12.10;;;;;;;10.26;100.00;101020.31;4993624;28;20108;-56
2021/12/30 00:47:06;;;;;;;37.00;12.25;;;;;;;10.33;100.00;101029.06;4993730;28;20489;-56
2021/12/30 00:49:32;;;;;;;36.88;12.25;;;;;;;10.32;100.00;101032.13;4993661;28;20030;-57
2021/12/30 00:51:57;;;;;;;36.08;11.93;;;;;;;10.36;100.00;101034.00;4993373;28;20087;-56
2021/12/30 00:54:23;;;;;;;34.80;11.57;;;;;;;10.36;100.00;101028.47;4993472;28;20133;-56
2021/12/30 00:56:49;;;;;;;36.28;13.45;;;;;;;10.36;100.00;101031.22;4993464;28;20030;-56
2021/12/30 00:59:14;;;;;;;34.10;12.85;;;;;;;10.37;100.00;101030.13;4993736;28;20161;-57
2021/12/30 01:01:39;;;;;;;36.28;12.43;;;;;;;10.37;100.00;101026.50;4996906;28;20472;-56
2021/12/30 01:04:05;;;;;;;37.35;13.48;;;;;;;10.38;100.00;101025.41;4997056;28;20037;-55
2021/12/30 01:06:30;;;;;;;37.72;12.48;;;;;;;10.40;100.00;101023.97;4997386;28;20026;-56
2021/12/30 01:08:57;;;;;;;38.40;12.60;;;;;;;10.39;100.00;101030.63;4997052;28;20041;-56
2021/12/30 01:11:24;;;;;;;36.35;12.70;;;;;;;10.42;100.00;101029.22;4997186;28;20030;-56
2021/12/30 01:13:58;;;;;;;32.53;12.75;;;;;;;10.43;100.00;101028.13;4997275;28;20030;-56
2021/12/30 01:16:24;;;;;;;34.15;13.32;;;;;;;10.43;100.00;101031.69;4997491;28;20061;-56
2021/12/30 01:21:19;;;;;;;36.22;12.63;;;;;;;10.44;100.00;101038.03;4997268;28;20465;-56
2021/12/30 01:23:45;;;;;;;32.83;13.35;;;;;;;10.48;100.00;101039.09;4997317;28;20425;-55
2021/12/30 01:26:10;;;;;;;38.80;12.88;;;;;;;10.45;100.00;101037.75;4997240;28;20034;-56
2021/12/30 01:28:35;;;;;;;32.05;11.82;;;;;;;10.48;100.00;101038.28;4997089;28;20150;-56
2021/12/30 01:31:02;;;;;;;33.60;11.48;;;;;;;10.49;100.00;101045.44;4996914;28;20027;-57
2021/12/30 01:33:27;;;;;;;34.47;11.25;;;;;;;10.49;100.00;101039.91;4997093;28;20031;-56
2021/12/30 01:35:53;;;;;;;34.40;11.80;;;;;;;10.51;100.00;101032.97;4996837;28;20037;-56
2021/12/30 01:38:18;;;;;;;31.17;11.15;;;;;;;10.52;100.00;101042.06;4996570;28;20466;-56
2021/12/30 01:40:46;;;;;;;34.08;11.30;;;;;;;10.50;100.00;101039.63;4996587;28;20500;-56
2021/12/30 01:43:13;;;;;;;32.75;11.10;;;;;;;10.53;100.00;101033.47;4996892;28;20134;-58
2021/12/30 01:45:40;;;;;;;35.72;11.50;;;;;;;10.55;100.00;101036.75;4996683;28;20401;-56
2021/12/30 01:48:06;;;;;;;33.97;10.80;;;;;;;10.56;100.00;101040.34;4996531;28;20046;-56
2021/12/30 01:50:32;;;;;;;31.75;10.57;;;;;;;10.58;100.00;101027.06;4996671;28;20030;-58
2021/12/30 01:52:58;;;;;;;32.55;10.38;;;;;;;10.62;100.00;101028.06;4996180;28;20145;-57
2021/12/30 01:55:24;;;;;;;30.00;10.40;;;;;;;10.61;100.00;101035.56;4996645;28;20034;-57
2021/12/30 01:57:50;;;;;;;31.15;10.88;;;;;;;10.65;100.00;101041.31;4996344;28;20026;-57
2021/12/30 02:00:21;;;;;;;30.42;10.65;;;;;;;10.64;100.00;101022.22;4996444;28;20030;-57
2021/12/30 02:02:47;;;;;;;36.05;10.95;;;;;;;10.71;100.00;101036.53;4996516;28;20041;-57
2021/12/30 02:05:12;;;;;;;33.92;12.65;;;;;;;10.81;100.00;101029.97;4996419;28;20030;-57
2021/12/30 02:07:37;;;;;;;34.47;12.43;;;;;;;10.76;100.00;101017.88;4996214;28;20033;-58
2021/12/30 02:10:04;;;;;;;34.95;12.95;;;;;;;10.86;100.00;101027.13;4996320;28;20041;-55
2021/12/30 02:12:37;;;;;;;35.17;13.68;;;;;;;10.87;100.00;101025.97;4996109;28;20023;-55
2021/12/30 02:15:05;;;;;;;34.15;12.60;;;;;;;10.79;100.00;101015.63;4996220;28;20031;-55
2021/12/30 02:17:30;;;;;;;35.03;12.15;;;;;;;10.93;100.00;101038.63;4996129;28;20453;-54
2021/12/30 02:20:01;;;;;;;32.70;12.80;;;;;;;10.95;100.00;101054.91;4996143;28;20030;-54
2021/12/30 02:22:26;;;;;;;37.92;12.57;;;;;;;10.91;100.00;101060.25;4996132;28;20124;-54
2021/12/30 02:24:51;;;;;;;33.05;12.88;;;;;;;10.98;100.00;101062.63;4996013;28;20045;-56
2021/12/30 02:27:18;;;;;;;34.50;12.95;;;;;;;10.95;100.00;101041.91;4995910;28;20022;-54
2021/12/30 02:29:43;;;;;;;34.10;13.70;;;;;;;11.01;100.00;101053.69;4995609;28;20034;-54
2021/12/30 02:32:09;;;;;;;35.10;13.98;;;;;;;11.06;100.00;101056.38;4995302;28;20029;-54
2021/12/30 02:34:36;;;;;;;29.42;13.25;;;;;;;11.06;100.00;101051.66;4995727;28;20433;-54
2021/12/30 02:37:02;;;;;;;34.35;12.77;;;;;;;11.04;100.00;101061.41;4995999;28;20080;-56
2021/12/30 02:39:29;;;;;;;35.53;13.48;;;;;;;11.00;100.00;101052.88;4995840;28;20034;-55
2021/12/30 02:41:54;;;;;;;31.05;13.02;;;;;;;11.04;100.00;101056.72;4995778;28;20038;-56
2021/12/30 02:44:19;;;;;;;32.03;13.50;;;;;;;11.02;100.00;101047.03;4995834;28;20359;-57
2021/12/30 02:46:50;;;;;;;35.20;13.82;;;;;;;10.97;100.00;101041.59;4995770;28;20028;-57
2021/12/30 02:49:15;;;;;;;32.45;13.60;;;;;;;11.02;100.00;101047.88;4995467;28;20536;-56
2021/12/30 02:51:41;;;;;;;32.38;12.90;;;;;;;10.99;100.00;101044.91;4995288;28;20046;-56
2021/12/30 02:54:06;;;;;;;32.45;13.02;;;;;;;11.03;100.00;101051.44;4995439;28;20039;-56
2021/12/30 02:56:32;;;;;;;30.98;12.85;;;;;;;11.03;100.00;101052.28;4995375;28;20080;-57
2021/12/30 02:58:57;;;;;;;36.70;13.45;;;;;;;11.03;100.00;101054.22;4994709;28;20022;-57
2021/12/30 03:01:27;;;;;;;32.10;12.40;;;;;;;11.02;100.00;101056.19;4995291;28;20113;-57
2021/12/30 03:03:53;;;;;;;30.88;12.10;;;;;;;11.03;100.00;101068.06;4995279;28;20394;-56
2021/12/30 03:06:18;;;;;;;32.28;12.57;;;;;;;11.04;100.00;101064.16;4994821;28;20041;-56
2021/12/30 03:08:46;;;;;;;32.22;12.50;;;;;;;11.03;100.00;101057.00;4995132;28;20034;-56
2021/12/30 03:11:12;;;;;;;33.00;12.93;;;;;;;11.04;100.00;101066.94;4995019;28;20026;-58
2021/12/30 03:13:41;;;;;;;33.22;12.93;;;;;;;11.01;100.00;101068.38;4994933;28;20026;-57
2021/12/30 03:16:13;;;;;;;33.72;12.60;;;;;;;10.98;100.00;101065.41;4995053;28;20049;-57
2021/12/30 03:18:40;;;;;;;32.33;12.10;;;;;;;10.98;100.00;101062.63;4995055;28;20557;-60
2021/12/30 03:21:08;;;;;;;30.95;11.75;;;;;;;10.97;100.00;101059.03;4994943;28;20023;-55
2021/12/30 03:23:34;;;;;;;30.50;11.93;;;;;;;11.01;100.00;101068.38;4994360;28;20030;-55
2021/12/30 03:26:00;;;;;;;29.00;11.05;;;;;;;11.03;100.00;101082.75;4994867;28;20378;-57
2021/12/30 03:28:25;;;;;;;29.77;11.82;;;;;;;11.02;100.00;101071.94;4994778;28;20065;-56
2021/12/30 03:30:51;;;;;;;25.90;10.85;;;;;;;11.01;100.00;101062.00;4994639;28;20085;-55
2021/12/30 03:33:17;;;;;;;30.50;11.77;;;;;;;10.99;100.00;101062.31;4994710;28;20041;-57
2021/12/30 03:35:43;;;;;;;26.60;10.80;;;;;;;10.98;100.00;101057.91;4994929;28;20027;-56
2021/12/30 03:38:08;;;;;;;25.30;10.43;;;;;;;10.97;100.00;101066.53;4994641;28;20113;-57
2021/12/30 03:40:34;;;;;;;28.45;10.90;;;;;;;10.98;100.00;101065.41;4994455;28;20035;-56
2021/12/30 03:43:00;;;;;;;25.20;10.80;;;;;;;10.99;100.00;101075.34;4994514;28;20027;-57
2021/12/30 03:45:25;;;;;;;23.60;10.32;;;;;;;10.98;100.00;101068.97;4994474;28;20377;-55
2021/12/30 03:47:51;;;;;;;25.02;10.43;;;;;;;10.99;100.00;101073.38;4994383;28;20058;-56
2021/12/30 03:50:24;;;;;;;26.27;10.07;;;;;;;10.97;100.00;101067.31;4994507;28;20027;-55
2021/12/30 03:52:53;;;;;;;24.77;10.13;;;;;;;10.99;100.00;101065.09;4994509;28;20050;-55
2021/12/30 03:55:20;;;;;;;23.40;9.70;;;;;;;11.02;100.00;101060.88;4994211;28;20150;-54
2021/12/30 03:57:46;;;;;;;24.48;10.13;;;;;;;11.01;100.00;101062.00;4994131;28;20074;-54
2021/12/30 04:00:12;;;;;;;22.63;10.55;;;;;;;11.03;100.00;101057.00;4994352;28;20482;-54
2021/12/30 04:02:38;;;;;;;22.08;9.38;;;;;;;11.04;100.00;101059.47;4994178;28;20038;-54
2021/12/30 04:05:04;;;;;;;22.73;9.57;;;;;;;11.07;100.00;101060.81;4994249;28;20033;-54
2021/12/30 04:07:29;;;;;;;21.73;9.15;;;;;;;11.10;100.00;101053.84;4994031;28;20038;-54
2021/12/30 04:09:55;;;;;;;22.50;8.77;;;;;;;11.10;100.00;101057.41;4994185;28;20481;-56
2021/12/30 04:12:20;;;;;;;20.25;8.80;;;;;;;11.10;100.00;101060.19;4993981;28;20053;-56
2021/12/30 04:14:45;;;;;;;20.58;8.35;;;;;;;11.14;100.00;101068.72;4994024;28;20144;-54
2021/12/30 04:17:11;;;;;;;20.40;8.18;;;;;;;11.21;100.00;101069.94;4994482;28;20027;-57
2021/12/30 04:19:36;;;;;;;18.95;8.23;;;;;;;11.23;100.00;101070.47;4993975;28;20485;-57
2021/12/30 04:22:02;;;;;;;21.98;9.13;;;;;;;11.26;100.00;101069.03;4994037;28;20041;-55
2021/12/30 04:24:27;;;;;;;23.20;9.98;;;;;;;11.32;100.00;101081.69;4993841;28;20438;-55
2021/12/30 04:26:52;;;;;;;21.33;9.60;;;;;;;11.34;100.00;101075.81;4993801;28;20022;-55
2021/12/30 04:29:19;;;;;;;23.70;10.38;;;;;;;11.38;100.00;101085.97;4993979;28;20026;-55
2021/12/30 04:31:45;;;;;;;23.70;10.95;;;;;;;11.46;100.00;101084.47;4993735;28;20026;-56
2021/12/30 04:34:10;;;;;;;23.55;12.25;;;;;;;11.49;100.00;101091.34;4993390;28;20018;-54
2021/12/30 04:36:36;;;;;;;24.42;11.73;;;;;;;11.48;100.00;101089.69;4993471;28;20477;-56
2021/12/30 04:39:02;;;;;;;25.75;12.77;;;;;;;11.52;100.00;101088.78;4993751;28;20068;-56
2021/12/30 04:41:27;;;;;;;26.90;13.23;;;;;;;11.59;100.00;101084.75;4993691;28;20045;-55
2021/12/30 04:43:53;;;;;;;27.00;14.73;;;;;;;11.61;100.00;101075.03;4993517;28;20478;-55
2021/12/30 04:46:18;;;;;;;28.60;15.75;;;;;;;11.63;100.00;101080.25;4993895;28;20029;-57
2021/12/30 04:48:43;;;;;;;29.88;16.20;;;;;;;11.73;100.00;101073.69;4993680;28;20038;-56
2021/12/30 04:51:08;;;;;;;30.83;16.48;;;;;;;11.67;100.00;101084.03;4993423;28;20018;-55
2021/12/30 04:53:34;;;;;;;29.08;16.65;;;;;;;11.70;100.00;101081.50;4993824;28;20027;-56
2021/12/30 04:55:59;;;;;;;29.58;16.75;;;;;;;11.76;100.00;101086.94;4993668;28;20023;-57
2021/12/30 04:58:24;;;;;;;31.08;18.02;;;;;;;11.78;100.00;101090.22;4993380;28;20106;-55
2021/12/30 05:00:50;;;;;;;32.95;19.40;;;;;;;11.82;100.00;101091.22;4993553;28;20458;-56
2021/12/30 05:03:16;;;;;;;32.30;19.08;;;;;;;11.80;100.00;101083.22;4993553;28;20030;-56
2021/12/30 05:05:48;;;;;;;31.30;18.58;;;;;;;11.83;100.00;101090.09;4993965;28;20057;-57
2021/12/30 05:08:15;;;;;;;31.55;18.83;;;;;;;11.85;100.00;101085.88;4993431;28;20469;-56
2021/12/30 05:10:41;;;;;;;31.85;18.58;;;;;;;11.86;100.00;101093.06;4993617;28;20026;-57
2021/12/30 05:13:08;;;;;;;33.13;19.80;;;;;;;11.91;100.00;101089.38;4993319;28;20501;-56
2021/12/30 05:15:34;;;;;;;31.63;18.55;;;;;;;11.92;100.00;101076.34;4993968;28;20023;-56
2021/12/30 05:18:00;;;;;;;30.58;19.13;;;;;;;11.90;100.00;101081.38;4993802;28;20029;-56
2021/12/30 05:20:25;;;;;;;28.88;17.48;;;;;;;11.90;100.00;101087.75;4993451;28;20109;-57
2021/12/30 05:22:51;;;;;;;31.25;19.13;;;;;;;11.93;100.00;101087.13;4993343;28;20442;-55
2021/12/30 05:25:18;;;;;;;30.45;19.08;;;;;;;12.03;100.00;101100.00;4993563;28;20037;-57
2021/12/30 05:27:44;;;;;;;31.48;19.95;;;;;;;11.98;100.00;101095.38;4993360;28;20030;-55
2021/12/30 05:30:12;;;;;;;32.15;19.88;;;;;;;11.96;100.00;101091.22;4992956;28;20481;-54
2021/12/30 05:32:37;;;;;;;31.20;18.90;;;;;;;12.01;100.00;101103.06;4993440;28;20080;-55
2021/12/30 05:35:05;;;;;;;31.10;18.40;;;;;;;12.01;100.00;101105.03;4993308;28;20500;-57
2021/12/30 05:37:31;;;;;;;30.80;19.73;;;;;;;12.08;100.00;101113.72;4993359;28;20032;-57
2021/12/30 05:39:56;;;;;;;30.83;19.20;;;;;;;12.14;100.00;101120.00;4993032;28;20034;-56
2021/12/30 05:42:23;;;;;;;32.03;19.13;;;;;;;12.16;100.00;101121.31;4993227;28;20069;-56
2021/12/30 05:44:50;;;;;;;33.67;20.65;;;;;;;12.09;100.00;101115.38;4993723;28;20030;-56
2021/12/30 05:47:16;;;;;;;32.50;20.42;;;;;;;12.14;100.00;101134.66;4995706;28;20026;-57
2021/12/30 05:49:41;;;;;;;31.73;19.92;;;;;;;12.16;100.00;101137.97;4996601;28;20469;-58
2021/12/30 05:52:06;;;;;;;32.35;20.27;;;;;;;12.13;100.00;101140.53;4996375;28;20049;-56
2021/12/30 05:54:31;;;;;;;30.95;19.27;;;;;;;12.21;100.00;101139.00;4996471;28;20022;-56
2021/12/30 05:56:57;;;;;;;32.08;19.60;;;;;;;12.25;100.00;101140.00;4996365;28;20053;-57
2021/12/30 05:59:22;;;;;;;30.98;18.63;;;;;;;12.29;100.00;101146.59;4996340;28;20031;-56
2021/12/30 06:01:47;;;;;;;30.13;19.17;;;;;;;12.34;100.00;101146.47;4996581;28;20373;-58
2021/12/30 06:04:12;;;;;;;29.25;17.33;;;;;;;12.31;100.00;101141.56;4996385;28;20076;-56
2021/12/30 06:06:38;;;;;;;29.08;18.95;;;;;;;12.29;100.00;101144.63;4996590;28;20030;-56
2021/12/30 06:09:03;;;;;;;28.20;18.50;;;;;;;12.29;100.00;101139.06;4996170;28;20100;-56
2021/12/30 06:11:28;;;;;;;26.42;16.48;;;;;;;12.38;100.00;101141.94;4996216;28;20058;-57
2021/12/30 06:13:53;;;;;;;23.55;14.20;;;;;;;12.41;100.00;101129.41;4996205;28;20065;-57
2021/12/30 06:16:19;;;;;;;24.70;14.18;;;;;;;12.37;100.00;101128.41;4994811;28;20437;-56
2021/12/30 06:18:44;;;;;;;21.25;11.23;;;;;;;12.46;100.00;101145.94;4996048;28;20026;-58
2021/12/30 06:21:09;;;;;;;19.48;9.63;;;;;;;12.48;100.00;101140.88;4996036;28;20066;-57
2021/12/30 06:23:35;;;;;;;18.85;10.43;;;;;;;12.42;100.00;101142.94;4995975;28;20050;-57
2021/12/30 06:26:00;;;;;;;19.42;9.75;;;;;;;12.45;100.00;101142.34;4995904;28;20030;-57
2021/12/30 06:28:25;;;;;;;18.73;10.35;;;;;;;12.46;100.00;101141.22;4996007;28;20045;-57
2021/12/30 06:30:50;;;;;;;19.98;9.98;;;;;;;12.46;100.00;101129.28;4995604;28;20049;-56
2021/12/30 06:33:16;;;;;;;18.13;9.00;;;;;;;12.52;100.00;101139.13;4995043;28;20041;-55
2021/12/30 06:35:41;;;;;;;18.27;9.15;;;;;;;12.49;100.00;101139.75;4995671;28;20022;-56
2021/12/30 06:38:06;;;;;;;17.00;8.32;;;;;;;12.55;100.00;101151.56;4995896;28;20022;-58
2021/12/30 06:40:33;;;;;;;19.42;9.23;;;;;;;12.44;100.00;101146.25;4995555;28;20026;-56
2021/12/30 06:42:58;;;;;;;20.23;10.93;;;;;;;12.49;100.00;101153.63;4994786;28;20034;-56
2021/12/30 06:45:24;;;;;;;20.88;11.02;;;;;;;12.55;100.00;101160.72;4994959;28;20072;-57
2021/12/30 06:47:49;;;;;;;22.77;11.77;;;;;;;12.52;100.00;101166.88;4995684;28;20057;-57
2021/12/30 06:50:17;;;;;;;22.08;12.05;;;;;;;12.51;100.00;101162.47;4995768;28;20027;-57
2021/12/30 06:52:46;;;;;;;22.60;13.07;;;;;;;12.46;100.00;101157.84;4995335;28;20058;-57
2021/12/30 06:55:12;;;;;;;22.80;12.73;;;;;;;12.50;100.00;101169.16;4995436;28;20045;-58
2021/12/30 06:57:38;;;;;;;22.33;12.45;;;;;;;12.52;100.00;101177.16;4995206;28;20034;-57
2021/12/30 07:00:07;;;;;;;23.65;12.88;;;;;;;12.46;100.00;101173.69;4995328;28;20039;-57
2021/12/30 07:02:34;;;;;;;23.73;12.80;;;;;;;12.41;100.00;101168.25;4995333;28;20033;-57
2021/12/30 07:04:59;;;;;;;23.58;13.20;;;;;;;12.50;100.00;101187.75;4995281;28;20026;-57
2021/12/30 07:07:24;;;;;;;23.15;12.55;;;;;;;12.46;100.00;101191.16;4994782;28;20085;-56
2021/12/30 07:09:49;;;;;;;23.98;12.90;;;;;;;12.47;100.00;101191.97;4995349;28;20026;-56
2021/12/30 07:12:15;;;;;;;23.90;13.13;;;;;;;12.47;100.00;101187.25;4995099;28;20023;-56
2021/12/30 07:14:40;;;;;;;22.45;11.80;;;;;;;12.47;100.00;101195.56;4994995;28;20554;-57
2021/12/30 07:17:05;;;;;;;22.08;12.55;;;;;;;12.54;100.00;101197.94;4994688;28;20026;-56
2021/12/30 07:19:31;;;;;;;22.95;12.05;;;;;;;12.52;100.00;101185.47;4994545;28;20030;-58
2021/12/30 07:21:57;;;;;;;21.80;11.55;;;;;;;12.60;100.00;101198.66;4995261;28;20077;-56
2021/12/30 07:24:22;;;;;;;22.40;12.05;;;;;;;12.48;100.00;101202.75;4994685;28;20062;-56
2021/12/30 07:26:49;;;;;;;23.13;12.18;;;;;;;12.52;100.00;101219.63;4994883;28;20494;-57
2021/12/30 07:29:14;;;;;;;23.20;13.27;;;;;;;12.51;100.00;101209.66;4994602;28;20035;-57
2021/12/30 07:31:39;;;;;;;22.92;13.48;;;;;;;12.50;100.00;101216.31;4994675;28;20029;-57
2021/12/30 07:34:04;;;;;;;24.23;13.55;;;;;;;12.54;100.00;101216.53;4994635;28;20077;-56
2021/12/30 07:36:30;;;;;;;23.27;14.32;;;;;;;12.55;100.00;101219.00;4994256;28;20026;-58
2021/12/30 07:38:55;;;;;;;23.70;14.25;;;;;;;12.52;100.00;101227.09;4994441;28;20461;-55
2021/12/30 07:41:21;;;;;;;24.90;15.32;;;;;;;12.61;100.00;101222.50;4994565;28;20034;-57
2021/12/30 07:43:46;;;;;;;25.25;16.00;;;;;;;12.54;100.00;101230.41;4994556;28;20076;-56
2021/12/30 07:46:11;;;;;;;25.45;15.73;;;;;;;12.66;100.00;101229.88;4994508;28;20034;-57
2021/12/30 07:48:37;;;;;;;26.02;16.80;;;;;;;12.58;100.00;101235.00;4994535;28;20502;-55
2021/12/30 07:51:03;;;;;;;25.75;15.30;;;;;;;12.59;100.00;101227.53;4994279;28;20028;-55
2021/12/30 07:53:28;;;;;;;25.67;16.35;;;;;;;12.56;100.00;101230.91;4994360;28;20093;-55
2021/12/30 07:55:53;;;;;;;22.55;13.35;;;;;;;12.64;100.00;101239.34;4994541;28;20105;-56
2021/12/30 07:58:19;;;;;;;25.08;15.55;;;;;;;12.64;100.00;101241.28;4994287;28;20036;-55
2021/12/30 08:00:44;;;;;;;24.80;15.10;;;;;;;12.61;100.00;101237.19;4994023;28;20105;-55
2021/12/30 08:03:10;;;;;;;26.02;16.52;;;;;;;12.60;100.00;101241.09;4976209;28;20019;-55
2021/12/30 08:05:36;;;;;;;24.73;14.30;;;;;;;12.67;100.00;101237.91;4972737;28;20038;-55
2021/12/30 08:08:01;;;;;;;24.30;15.75;;;;;;;12.66;100.00;101239.03;5003738;28;20031;-55
2021/12/30 08:10:28;;;;;;;24.92;14.32;;;;;;;12.60;100.00;101238.31;4972152;28;20033;-55
2021/12/30 08:12:54;;;;;;;25.83;16.52;;;;;;;12.60;100.00;101243.84;4972505;28;20554;-55
2021/12/30 08:15:20;;;;;;;26.17;17.05;;;;;;;12.59;100.00;101246.97;4972607;28;20066;-55
2021/12/30 08:17:47;;;;;;;29.40;18.95;;;;;;;12.58;100.00;101257.22;4972503;28;20058;-55
2021/12/30 08:20:13;;;;;;;26.77;15.93;;;;;;;12.64;100.00;101261.56;4972320;28;20037;-59
2021/12/30 08:22:39;;;;;;;25.23;15.60;;;;;;;12.65;100.00;101279.00;4972346;28;20062;-55
2021/12/30 08:25:06;;;;;;;25.35;16.63;;;;;;;12.65;100.00;101273.47;4972464;28;20031;-55
2021/12/30 08:27:31;;;;;;;25.27;15.90;;;;;;;12.63;100.00;101281.28;4972202;28;20030;-56
2021/12/30 08:29:57;;;;;;;25.42;16.13;;;;;;;12.67;100.00;101273.97;4972274;28;20105;-57
2021/12/30 08:32:22;;;;;;;24.48;14.73;;;;;;;12.68;100.00;101275.63;4972294;28;20122;-55
2021/12/30 08:34:47;;;;;;;25.38;15.05;;;;;;;12.68;100.00;101269.22;4972246;28;20470;-57
2021/12/30 08:37:13;;;;;;;23.98;13.60;;;;;;;12.72;100.00;101275.81;4972129;28;20069;-55
2021/12/30 08:39:40;;;;;;;21.90;12.38;;;;;;;12.75;100.00;101264.09;4972150;28;20033;-56
2021/12/30 08:42:15;;;;;;;23.55;12.63;;;;;;;12.71;100.00;101274.19;4971746;28;20054;-55
2021/12/30 08:44:40;;;;;;;21.27;12.00;;;;;;;12.74;100.00;101268.00;4972143;28;20721;-57
2021/12/30 08:47:06;;;;;;;21.08;10.77;;;;;;;12.76;100.00;101268.50;4971787;28;20221;-55
2021/12/30 08:49:31;;;;;;;20.77;11.23;;;;;;;12.76;100.00;101274.06;4972080;28;20039;-55
2021/12/30 08:51:56;;;;;;;21.38;10.13;;;;;;;12.81;99.65;101276.75;4976956;28;20469;-56
2021/12/30 08:54:21;;;;;;;20.60;10.32;;;;;;;12.83;99.56;101291.13;4991200;28;20026;-55
2021/12/30 08:56:47;;;;;;;19.80;9.77;;;;;;;12.82;99.60;101289.50;4989779;28;20031;-55
2021/12/30 08:59:13;;;;;;;19.98;10.02;;;;;;;12.75;99.94;101289.09;4991059;28;20058;-56
2021/12/30 09:01:39;;;;;;;20.65;9.68;;;;;;;12.82;100.00;101306.16;4991776;28;20462;-56
2021/12/30 09:04:04;;;;;;;17.77;8.43;;;;;;;12.86;99.22;101304.38;4991430;28;20149;-56
2021/12/30 09:06:29;;;;;;;17.45;7.90;;;;;;;12.90;98.98;101312.91;4991234;28;20425;-55
2021/12/30 09:08:54;;;;;;;18.13;7.97;;;;;;;12.89;98.96;101302.97;4991312;28;20034;-58
2021/12/30 09:11:20;;;;;;;18.63;7.95;;;;;;;12.89;99.24;101308.50;4991393;28;20034;-58
2021/12/30 09:13:45;;;;;;;19.45;7.63;;;;;;;13.00;97.94;101314.66;4991322;28;20058;-56
2021/12/30 09:16:10;;;;;;;17.25;7.90;;;;;;;12.97;98.41;101306.94;4991427;28;20038;-56
2021/12/30 09:18:35;;;;;;;18.23;7.75;;;;;;;13.00;98.04;101315.47;4991139;28;20030;-56
2021/12/30 09:21:01;;;;;;;18.85;8.05;;;;;;;12.99;98.27;101313.00;4991855;28;20035;-56
2021/12/30 09:23:26;;;;;;;19.30;8.18;;;;;;;13.05;97.87;101312.59;4995038;28;20035;-56
2021/12/30 09:25:53;;;;;;;19.45;8.13;;;;;;;13.07;97.56;101312.28;4994973;28;20027;-57
2021/12/30 09:28:19;;;;;;;21.27;8.52;;;;;;;13.14;96.66;101323.78;4995086;28;20073;-58
2021/12/30 09:30:45;;;;;;;20.58;8.77;;;;;;;13.15;96.90;101325.41;4995008;28;20058;-58
2021/12/30 09:33:15;;;;;;;19.35;8.30;;;;;;;13.22;96.04;101322.22;4994581;28;20109;-56
2021/12/30 09:35:40;;;;;;;19.27;8.30;;;;;;;13.21;96.45;101317.78;4994665;28;20485;-56
2021/12/30 09:38:06;;;;;;;19.95;8.30;;;;;;;13.25;95.39;101316.84;4994643;28;20062;-56
2021/12/30 09:40:31;;;;;;;21.13;8.05;;;;;;;13.29;95.84;101317.03;4994419;28;20033;-56
2021/12/30 09:43:01;;;;;;;18.90;8.00;;;;;;;13.36;94.78;101322.19;4994446;28;20058;-58
2021/12/30 09:45:34;;;;;;;18.25;7.88;;;;;;;13.39;94.79;101330.75;4994054;28;20045;-56
2021/12/30 09:48:04;;;;;;;18.08;7.97;;;;;;;13.33;95.15;101331.13;4994137;28;20028;-56
2021/12/30 09:50:34;;;;;;;19.65;7.80;;;;;;;13.35;94.18;101337.22;4993780;28;20118;-56
2021/12/30 09:53:00;;;;;;;18.58;7.75;;;;;;;13.44;93.32;101340.91;4994140;28;20077;-57
2021/12/30 09:55:26;;;;;;;18.25;7.70;;;;;;;13.48;92.97;101355.00;4992656;28;20058;-56
2021/12/30 09:57:53;;;;;;;20.33;8.65;;;;;;;13.48;92.49;101341.09;4994183;28;20023;-56
2021/12/30 10:00:19;;;;;;;20.52;7.68;;;;;;;13.50;91.78;101344.41;4993836;28;20453;-58
2021/12/30 10:02:44;;;;;;;19.40;7.88;;;;;;;13.54;91.17;101334.31;4994082;28;20106;-58
2021/12/30 10:05:13;;;;;;;16.33;7.15;;;;;;;13.54;91.07;101337.09;4993907;28;20022;-56
2021/12/30 10:07:41;;;;;;;18.55;8.20;;;;;;;13.56;90.97;101335.63;4994197;28;20087;-56
2021/12/30 10:10:34;;;;;;;17.60;7.43;;;;;;;13.65;91.44;101337.66;4994218;28;20026;-55
2021/12/30 10:13:13;;;;;;;19.83;7.72;;;;;;;13.54;91.24;101332.34;4988442;28;20575;-55
2021/12/30 10:15:48;;;;;;;19.52;8.05;;;;;;;13.66;90.99;101345.66;4994097;28;20393;-56
2021/12/30 10:18:14;;;;;;;17.23;8.02;;;;;;;13.62;90.30;101333.56;4994117;28;20381;-56
2021/12/30 10:20:41;;;;;;;19.95;8.05;;;;;;;13.69;90.87;101342.28;4994055;28;20034;-56
2021/12/30 10:23:22;;;;;;;20.65;8.02;;;;;;;13.75;90.07;101348.53;4994000;28;20060;-55
2021/12/30 10:25:58;;;;;;;18.67;7.90;;;;;;;13.77;89.94;101345.44;4994229;28;20080;-57
2021/12/30 10:28:27;;;;;;;19.55;8.18;;;;;;;13.75;89.39;101348.53;4993815;28;20085;-56
2021/12/30 10:31:27;;;;;;;22.30;9.50;;;;;;;13.71;90.15;101353.91;4993754;28;20031;-56
2021/12/30 10:34:04;;;;;;;19.88;7.88;;;;;;;13.69;90.05;101356.16;4987448;28;20085;-56
2021/12/30 10:36:29;;;;;;;19.67;8.30;;;;;;;13.66;89.49;101354.00;4973869;28;20118;-56
2021/12/30 10:39:20;;;;;;;20.55;8.48;;;;;;;13.68;89.71;101350.94;4984235;28;20161;-56
2021/12/30 10:41:48;;;;;;;18.73;7.63;;;;;;;13.62;88.62;101344.66;4993423;28;20098;-56
2021/12/30 10:44:14;;;;;;;18.30;8.10;;;;;;;13.63;88.87;101356.59;4993110;28;20030;-56
2021/12/30 10:46:40;;;;;;;20.77;8.20;;;;;;;13.62;89.11;101357.72;4993148;28;20069;-56
2021/12/30 10:49:09;;;;;;;19.15;8.75;;;;;;;13.54;89.85;101362.09;4992690;28;20054;-57
2021/12/30 10:51:49;;;;;;;21.60;8.35;;;;;;;13.56;90.41;101362.59;4992928;28;20054;-57
2021/12/30 10:54:18;;;;;;;17.80;8.68;;;;;;;13.63;88.63;101364.94;4993078;28;20657;-56
2021/12/30 10:56:50;;;;;;;20.80;8.02;;;;;;;13.59;89.06;101356.41;4991406;28;20026;-57
2021/12/30 10:59:18;;;;;;;22.35;8.93;;;;;;;13.66;88.30;101365.13;4992847;28;20425;-57
2021/12/30 11:01:54;;;;;;;21.83;8.77;;;;;;;13.63;89.36;101360.22;4993093;28;20030;-56
2021/12/30 11:04:20;;;;;;;20.60;7.65;;;;;;;13.68;88.93;101367.63;4993197;28;20156;-56